Time;durP1;ratioP1;P1;durP2;ratioP2;P2;SDS_P1;SDS_P2;PMS_P1;PMS_P2;Temp;Humidity;BMP_temperature;BMP_pressure;BME280_temperature;BME280_humidity;BME280_pressure;Samples;Min_cycle;Max_cycle;Signal;HPM_P1;HPM_P2
2021/09/15 00:01:37;;;;;;;15.02;8.80;;;537.70;1612.80;;;;;;5094533;28;20424;-63
2021/09/15 00:04:03;;;;;;;31.52;10.98;;;537.60;1612.80;;;;;;5094324;28;20027;-63
2021/09/15 00:06:29;;;;;;;17.40;10.27;;;537.60;1587.20;;;;;;5093742;28;20040;-63
2021/09/15 00:08:54;;;;;;;23.63;9.45;;;537.60;1612.80;;;;;;5094287;28;20020;-64
2021/09/15 00:11:22;;;;;;;17.17;10.43;;;537.60;1612.80;;;;;;5094251;28;20411;-63
2021/09/15 00:13:48;;;;;;;31.48;10.35;;;537.60;1587.20;;;;;;5094411;28;20027;-63
2021/09/15 00:16:14;;;;;;;25.45;9.90;;;512.90;1587.20;;;;;;5094023;28;20036;-63
2021/09/15 00:18:39;;;;;;;18.45;10.30;;;512.90;1587.20;;;;;;5093909;28;20098;-63
2021/09/15 00:21:05;;;;;;;19.92;9.98;;;512.90;1587.20;;;;;;5094090;28;20461;-63
2021/09/15 00:23:31;;;;;;;17.67;10.35;;;512.90;1587.20;;;;;;5092662;28;20032;-64
2021/09/15 00:25:56;;;;;;;27.70;9.63;;;512.80;1587.20;;;;;;5089772;28;20027;-63
2021/09/15 00:28:22;;;;;;;17.55;10.13;;;512.80;1587.20;;;;;;5094075;28;20480;-63
2021/09/15 00:30:48;;;;;;;18.80;10.07;;;512.70;1587.20;;;;;;5092747;28;20035;-63
2021/09/15 00:33:13;;;;;;;21.48;9.65;;;512.70;1587.20;;;;;;5093617;28;20093;-63
2021/09/15 00:35:39;;;;;;;23.35;10.07;;;512.80;1587.20;;;;;;5094046;28;20028;-63
2021/09/15 00:38:05;;;;;;;21.92;10.00;;;512.70;1587.20;;;;;;5093880;28;20008;-63
2021/09/15 00:40:31;;;;;;;22.65;9.50;;;512.70;1587.20;;;;;;5093697;28;20031;-63
2021/09/15 00:42:57;;;;;;;21.55;9.05;;;512.70;1612.80;;;;;;5094081;28;20020;-63
2021/09/15 00:45:23;;;;;;;17.20;9.35;;;512.70;1587.20;;;;;;5093563;28;20377;-63
2021/09/15 00:47:48;;;;;;;13.85;9.00;;;512.60;1612.80;;;;;;5093529;28;20085;-63
2021/09/15 00:50:15;;;;;;;21.05;8.93;;;512.60;1612.80;;;;;;5091478;28;20038;-64
2021/09/15 00:52:41;;;;;;;21.80;9.93;;;512.60;1612.80;;;;;;5093459;28;20048;-63
2021/09/15 00:55:07;;;;;;;19.25;9.50;;;512.60;1612.80;;;;;;5091829;28;20101;-63
2021/09/15 00:57:33;;;;;;;16.48;9.20;;;512.50;1612.80;;;;;;5092965;28;20024;-63
2021/09/15 00:59:59;;;;;;;25.75;10.38;;;512.50;1612.80;;;;;;5093382;28;20043;-63
2021/09/15 01:02:26;;;;;;;23.75;9.82;;;512.50;1612.80;;;;;;5091977;28;20496;-63
2021/09/15 01:04:52;;;;;;;19.17;9.65;;;512.50;1612.80;;;;;;5093214;28;20028;-64
2021/09/15 01:07:18;;;;;;;17.33;8.93;;;512.50;1612.80;;;;;;5090921;28;20031;-63
2021/09/15 01:09:46;;;;;;;17.10;9.55;;;512.50;1612.80;;;;;;5092942;28;20024;-64
2021/09/15 01:12:13;;;;;;;20.90;10.35;;;512.50;1612.80;;;;;;5093534;28;20036;-68
2021/09/15 01:14:40;;;;;;;17.15;9.73;;;512.50;1612.80;;;;;;5088513;28;20044;-64
2021/09/15 01:17:07;;;;;;;14.63;8.55;;;512.40;1612.80;;;;;;5091697;28;20016;-63
2021/09/15 01:19:32;;;;;;;18.40;9.05;;;512.40;1612.80;;;;;;5092979;28;20028;-63
2021/09/15 01:21:59;;;;;;;19.25;9.15;;;512.40;1612.80;;;;;;5093344;28;20035;-63
2021/09/15 01:24:27;;;;;;;24.65;9.40;;;512.40;1612.80;;;;;;5092903;28;20024;-64
2021/09/15 01:26:53;;;;;;;20.25;9.55;;;512.30;1638.40;;;;;;5091571;28;20093;-64
2021/09/15 01:29:20;;;;;;;15.60;8.82;;;512.30;1638.40;;;;;;5093096;28;20715;-63
2021/09/15 01:31:55;;;;;;;18.60;9.57;;;512.30;1638.40;;;;;;5093350;28;20039;-64
2021/09/15 01:34:22;;;;;;;19.85;8.75;;;512.30;1638.40;;;;;;5094164;28;20377;-64
2021/09/15 01:36:48;;;;;;;20.42;10.15;;;512.30;1638.40;;;;;;5093906;28;20103;-64
2021/09/15 01:39:13;;;;;;;21.40;8.65;;;512.20;1638.40;;;;;;5094025;28;20056;-64
2021/09/15 01:41:39;;;;;;;22.85;9.23;;;512.20;1638.40;;;;;;5094030;28;20024;-64
2021/09/15 01:44:05;;;;;;;16.05;8.82;;;512.20;1638.40;;;;;;5094317;28;20027;-63
2021/09/15 01:46:30;;;;;;;19.27;9.27;;;512.20;1638.40;;;;;;5094503;28;20095;-64
2021/09/15 01:48:56;;;;;;;13.50;9.48;;;512.20;1638.40;;;;;;5093762;28;20023;-66
2021/09/15 01:51:22;;;;;;;19.27;10.15;;;512.20;1638.40;;;;;;5094151;28;20031;-64
2021/09/15 01:53:47;;;;;;;16.08;9.95;;;512.20;1638.40;;;;;;5093917;28;20421;-64
2021/09/15 01:56:14;;;;;;;21.10;9.10;;;512.20;1638.40;;;;;;5093840;28;20032;-63
2021/09/15 01:58:40;;;;;;;13.70;9.27;;;512.20;1638.40;;;;;;5094060;28;20028;-64
2021/09/15 02:01:05;;;;;;;18.60;9.48;;;512.10;1664.00;;;;;;5093944;28;20369;-64
2021/09/15 02:03:31;;;;;;;19.63;9.30;;;512.10;1664.00;;;;;;5094425;28;20108;-64
2021/09/15 02:05:57;;;;;;;21.13;9.50;;;512.10;1664.00;;;;;;5093622;28;20024;-64
2021/09/15 02:08:22;;;;;;;25.63;9.88;;;512.10;1664.00;;;;;;5092326;28;20032;-63
2021/09/15 02:10:48;;;;;;;20.35;9.85;;;512.10;1664.00;;;;;;5093627;28;20366;-63
2021/09/15 02:13:14;;;;;;;20.25;10.93;;;512.10;1664.00;;;;;;5093765;28;20062;-63
2021/09/15 02:15:39;;;;;;;18.40;10.88;;;512.00;1664.00;;;;;;5093644;28;20032;-63
2021/09/15 02:18:05;;;;;;;14.63;10.48;;;512.00;1664.00;;;;;;5093970;28;20016;-64
2021/09/15 02:20:31;;;;;;;14.25;9.68;;;512.00;1664.00;;;;;;5092266;28;20059;-64
2021/09/15 02:22:57;;;;;;;21.17;9.82;;;512.00;1664.00;;;;;;5093556;28;20027;-63
2021/09/15 02:25:22;;;;;;;14.73;9.43;;;487.30;1664.00;;;;;;5092215;28;20032;-64
2021/09/15 02:27:48;;;;;;;19.52;9.80;;;487.30;1664.00;;;;;;5093064;28;20016;-64
2021/09/15 02:30:14;;;;;;;14.55;9.88;;;487.30;1664.00;;;;;;5093210;28;20561;-64
2021/09/15 02:32:39;;;;;;;17.60;9.68;;;487.30;1689.60;;;;;;5093825;28;20070;-64
2021/09/15 02:35:05;;;;;;;22.98;9.77;;;487.30;1689.60;;;;;;5093303;28;20389;-64
2021/09/15 02:37:31;;;;;;;21.90;10.32;;;487.20;1664.00;;;;;;5093396;28;20028;-64
2021/09/15 02:39:57;;;;;;;18.35;9.57;;;487.20;1689.60;;;;;;5092800;28;20020;-63
2021/09/15 02:42:22;;;;;;;15.80;10.80;;;487.30;1689.60;;;;;;5093582;28;20397;-64
2021/09/15 02:44:48;;;;;;;17.35;10.05;;;487.20;1664.00;;;;;;5093657;28;20072;-64
2021/09/15 02:47:14;;;;;;;20.02;10.73;;;487.20;1664.00;;;;;;5093677;28;20028;-64
2021/09/15 02:49:40;;;;;;;25.77;12.13;;;487.20;1664.00;;;;;;5093755;28;20020;-64
2021/09/15 02:52:06;;;;;;;24.58;11.00;;;487.20;1664.00;;;;;;5093498;28;20477;-64
2021/09/15 02:54:31;;;;;;;26.33;11.45;;;487.20;1689.60;;;;;;5093106;28;20020;-64
2021/09/15 02:56:57;;;;;;;23.90;10.25;;;487.20;1689.60;;;;;;5093165;28;20055;-63
2021/09/15 02:59:23;;;;;;;24.02;11.15;;;487.20;1689.60;;;;;;5093231;28;20031;-64
2021/09/15 03:01:48;;;;;;;19.20;10.80;;;487.20;1689.60;;;;;;5093185;28;20028;-64
2021/09/15 03:04:14;;;;;;;27.00;11.07;;;487.20;1689.60;;;;;;5092899;28;20070;-64
2021/09/15 03:06:40;;;;;;;18.15;11.10;;;487.20;1689.60;;;;;;5091357;28;20122;-64
2021/09/15 03:09:06;;;;;;;20.00;11.95;;;487.20;1689.60;;;;;;5093106;28;20020;-64
2021/09/15 03:11:32;;;;;;;22.75;10.93;;;487.20;1689.60;;;;;;5092957;28;20135;-64
2021/09/15 03:13:58;;;;;;;31.60;11.32;;;487.20;1689.60;;;;;;5096725;28;20113;-64
2021/09/15 03:16:25;;;;;;;19.42;11.10;;;487.20;1689.60;;;;;;5096829;28;20040;-63
2021/09/15 03:18:51;;;;;;;23.02;11.50;;;487.20;1689.60;;;;;;5096856;28;20103;-64
2021/09/15 03:21:16;;;;;;;22.83;10.68;;;487.20;1689.60;;;;;;5096726;28;20062;-63
2021/09/15 03:23:42;;;;;;;23.10;11.02;;;487.20;1689.60;;;;;;5096719;28;20477;-63
2021/09/15 03:26:08;;;;;;;23.77;10.90;;;487.20;1715.20;;;;;;5096741;28;20024;-64
2021/09/15 03:28:33;;;;;;;22.90;12.45;;;487.20;1715.20;;;;;;5096876;28;20454;-64
2021/09/15 03:30:59;;;;;;;22.15;12.00;;;487.10;1715.20;;;;;;5096530;28;20107;-63
2021/09/15 03:33:25;;;;;;;26.65;11.32;;;487.10;1715.20;;;;;;5096371;28;20025;-63
2021/09/15 03:35:51;;;;;;;19.73;12.00;;;487.10;1715.20;;;;;;5096414;28;20397;-64
2021/09/15 03:38:16;;;;;;;28.58;12.68;;;487.10;1715.20;;;;;;5096555;28;20052;-63
2021/09/15 03:40:42;;;;;;;24.08;11.23;;;487.10;1715.20;;;;;;5096189;28;20024;-64
2021/09/15 03:43:08;;;;;;;24.00;11.63;;;487.10;1740.80;;;;;;5096519;28;20031;-63
2021/09/15 03:45:34;;;;;;;27.80;12.05;;;487.10;1740.80;;;;;;5094310;28;20036;-63
2021/09/15 03:48:00;;;;;;;23.15;11.75;;;487.10;1740.80;;;;;;5096220;28;20021;-63
2021/09/15 03:50:25;;;;;;;27.33;12.93;;;487.00;1740.80;;;;;;5096416;28;20031;-63
2021/09/15 03:52:51;;;;;;;24.52;13.98;;;487.00;1740.80;;;;;;5095299;28;20052;-63
2021/09/15 03:55:17;;;;;;;26.92;12.68;;;487.00;1740.80;;;;;;5096106;28;20040;-64
2021/09/15 03:57:43;;;;;;;28.05;13.52;;;487.00;1766.40;;;;;;5096130;28;20077;-63
2021/09/15 04:00:10;;;;;;;26.67;13.93;;;486.90;1740.80;;;;;;5096147;28;20482;-63
2021/09/15 04:02:36;;;;;;;24.52;11.75;;;487.00;1740.80;;;;;;5096121;28;20035;-64
2021/09/15 04:05:02;;;;;;;25.98;12.27;;;486.90;1740.80;;;;;;5095995;28;20369;-63
2021/09/15 04:07:27;;;;;;;22.05;13.00;;;486.90;1740.80;;;;;;5095755;28;20052;-63
2021/09/15 04:09:53;;;;;;;28.33;13.02;;;486.90;1740.80;;;;;;5094042;28;20078;-63
2021/09/15 04:12:22;;;;;;;26.15;12.90;;;486.90;1740.80;;;;;;5095966;28;20031;-64
2021/09/15 04:14:47;;;;;;;26.08;13.35;;;486.90;1740.80;;;;;;5094874;28;20028;-63
2021/09/15 04:17:13;;;;;;;28.10;14.48;;;486.90;1740.80;;;;;;5095751;28;20085;-64
2021/09/15 04:19:39;;;;;;;36.63;14.32;;;486.90;1740.80;;;;;;5095859;28;20020;-65
2021/09/15 04:22:06;;;;;;;27.70;12.82;;;486.90;1740.80;;;;;;5095701;28;20030;-64
2021/09/15 04:32:35;;;;;;;35.42;15.27;;;486.80;1740.80;;;;;;5095259;28;20035;-64
2021/09/15 04:35:01;;;;;;;33.70;15.75;;;486.80;1766.40;;;;;;5094416;28;20036;-64
2021/09/15 04:37:27;;;;;;;30.42;13.32;;;486.80;1766.40;;;;;;5095214;28;20046;-64
2021/09/15 04:39:52;;;;;;;32.50;14.05;;;486.80;1766.40;;;;;;5095226;28;20020;-64
2021/09/15 04:42:18;;;;;;;24.90;13.98;;;486.80;1766.40;;;;;;5095130;28;20024;-64
2021/09/15 04:44:44;;;;;;;33.38;16.13;;;486.80;1766.40;;;;;;5093984;28;20040;-64
2021/09/15 04:47:09;;;;;;;42.72;16.70;;;486.80;1766.40;;;;;;5095361;28;20017;-63
2021/09/15 04:49:35;;;;;;;31.85;16.55;;;486.80;1766.40;;;;;;5094925;28;20428;-64
2021/09/15 04:52:01;;;;;;;38.00;17.15;;;486.80;1766.40;;;;;;5093588;28;20046;-64
2021/09/15 04:54:27;;;;;;;49.65;18.55;;;486.80;1766.40;;;;;;5093516;28;20545;-64
2021/09/15 04:56:52;;;;;;;74.47;20.63;;;486.80;1792.00;;;;;;5095070;28;20024;-63
2021/09/15 04:59:18;;;;;;;76.15;20.35;;;486.80;1766.40;;;;;;5094996;28;20024;-64
2021/09/15 05:01:45;;;;;;;59.67;23.90;;;486.80;1766.40;;;;;;5093510;28;20159;-64
2021/09/15 05:04:11;;;;;;;56.72;24.77;;;486.80;1766.40;;;;;;5093207;28;20032;-64
2021/09/15 05:06:37;;;;;;;52.80;23.52;;;486.80;1766.40;;;;;;5094829;28;20162;-64
2021/09/15 05:09:03;;;;;;;63.13;22.92;;;486.80;1792.00;;;;;;5094742;28;20024;-63
2021/09/15 05:11:28;;;;;;;47.58;21.77;;;486.80;1817.60;;;;;;5093915;28;20123;-64
2021/09/15 05:13:54;;;;;;;58.30;23.52;;;486.80;1817.60;;;;;;5094575;28;20525;-63
2021/09/15 05:16:20;;;;;;;46.10;23.38;;;486.90;1792.00;;;;;;5094683;28;20036;-63
2021/09/15 05:18:45;;;;;;;42.35;20.88;;;486.90;1792.00;;;;;;5092718;28;20024;-64
2021/09/15 05:21:11;;;;;;;42.60;20.80;;;486.90;1792.00;;;;;;5094279;28;20047;-63
2021/09/15 05:23:37;;;;;;;56.53;23.40;;;486.90;1817.60;;;;;;5094661;28;20039;-63
2021/09/15 05:26:03;;;;;;;46.72;24.25;;;486.90;1792.00;;;;;;5094326;28;20432;-64
2021/09/15 05:28:29;;;;;;;66.38;26.17;;;486.90;1817.60;;;;;;5094291;28;20474;-64
2021/09/15 05:30:55;;;;;;;61.50;25.67;;;487.00;1817.60;;;;;;5094532;28;20028;-63
2021/09/15 05:33:21;;;;;;;59.35;25.35;;;487.10;1817.60;;;;;;5093995;28;20103;-64
2021/09/15 05:35:46;;;;;;;95.53;28.77;;;487.10;1817.60;;;;;;5093851;28;20051;-63
2021/09/15 05:38:12;;;;;;;99.45;31.13;;;487.10;1817.60;;;;;;5094272;28;20370;-64
2021/09/15 05:40:38;;;;;;;80.03;30.25;;;487.10;1843.20;;;;;;5094250;28;20024;-63
2021/09/15 05:43:05;;;;;;;68.82;30.30;;;487.20;1843.20;;;;;;5093945;28;20020;-64
2021/09/15 05:45:31;;;;;;;62.95;29.63;;;487.20;1843.20;;;;;;5094207;28;20024;-64
2021/09/15 05:47:56;;;;;;;51.35;28.35;;;487.20;1843.20;;;;;;5094321;28;20023;-64
2021/09/15 05:50:22;;;;;;;57.67;28.17;;;487.30;1843.20;;;;;;5093781;28;20359;-63
2021/09/15 05:52:48;;;;;;;49.65;29.17;;;512.00;1843.20;;;;;;5093631;28;20027;-63
2021/09/15 05:55:14;;;;;;;60.28;31.15;;;512.00;1843.20;;;;;;5093767;28;20068;-64
2021/09/15 05:57:39;;;;;;;48.30;29.45;;;512.00;1843.20;;;;;;5094652;28;20028;-63
2021/09/15 06:00:06;;;;;;;54.58;28.65;;;512.10;1843.20;;;;;;5093843;28;20054;-64
2021/09/15 06:02:32;;;;;;;52.28;29.77;;;512.10;1843.20;;;;;;5093631;28;20045;-63
2021/09/15 06:04:58;;;;;;;52.00;27.88;;;512.20;1843.20;;;;;;5093992;28;20160;-64
2021/09/15 06:07:24;;;;;;;51.83;24.17;;;512.50;1843.20;;;;;;5092838;28;20020;-63
2021/09/15 06:09:49;;;;;;;47.50;21.65;;;512.40;1843.20;;;;;;5093431;28;20031;-62
2021/09/15 06:12:15;;;;;;;41.20;20.90;;;512.50;1843.20;;;;;;5092221;28;20084;-64
2021/09/15 06:14:41;;;;;;;30.30;19.63;;;512.50;1843.20;;;;;;5092295;28;20039;-64
2021/09/15 06:17:07;;;;;;;37.88;18.48;;;512.50;1817.60;;;;;;5093793;28;20377;-64
2021/09/15 06:19:33;;;;;;;23.38;17.88;;;512.60;1817.60;;;;;;5094134;28;20366;-69
2021/09/15 06:21:59;;;;;;;35.20;18.02;;;512.80;1843.20;;;;;;5093575;28;20028;-64
2021/09/15 06:24:25;;;;;;;22.45;17.02;;;512.80;1843.20;;;;;;5092124;28;20161;-63
2021/09/15 06:26:52;;;;;;;30.23;17.33;;;537.60;1868.80;;;;;;5093610;28;20088;-72
2021/09/15 06:29:18;;;;;;;35.78;15.95;;;537.60;1868.80;;;;;;5093626;28;20048;-64
2021/09/15 06:31:44;;;;;;;18.48;15.40;;;537.60;1843.20;;;;;;5093587;28;20415;-63
2021/09/15 06:34:11;;;;;;;35.00;18.15;;;537.70;1868.80;;;;;;5093368;28;20109;-63
2021/09/15 06:36:39;;;;;;;24.38;15.27;;;537.80;1868.80;;;;;;5092901;28;20089;-64
2021/09/15 06:39:06;;;;;;;29.17;16.40;;;537.90;1843.20;;;;;;5093308;28;20044;-63
2021/09/15 06:41:32;;;;;;;30.00;17.20;;;538.00;1843.20;;;;;;5093377;28;20035;-65
2021/09/15 06:43:57;;;;;;;18.15;13.65;;;538.00;1843.20;;;;;;5092078;28;20028;-64
2021/09/15 06:46:23;;;;;;;18.52;13.68;;;538.10;1817.60;;;;;;5093384;28;20028;-64
2021/09/15 06:48:49;;;;;;;22.55;13.60;;;538.20;1817.60;;;;;;5096410;28;20066;-69
2021/09/15 06:51:16;;;;;;;21.80;13.77;;;538.30;1792.00;;;;;;5095529;28;20401;-69
2021/09/15 06:53:42;;;;;;;31.88;14.15;;;538.40;1792.00;;;;;;5097067;28;20108;-65
2021/09/15 06:56:08;;;;;;;22.00;12.95;;;538.50;1766.40;;;;;;5096834;28;20452;-63
2021/09/15 06:58:33;;;;;;;25.17;13.40;;;563.20;1792.00;;;;;;5097177;28;20028;-63
2021/09/15 07:00:59;;;;;;;17.42;12.18;;;563.20;1792.00;;;;;;5097120;28;20081;-62
2021/09/15 07:03:25;;;;;;;20.38;11.43;;;563.30;1792.00;;;;;;5096601;28;20085;-63
2021/09/15 07:05:50;;;;;;;20.00;10.43;;;563.40;1766.40;;;;;;5097021;28;20435;-64
2021/09/15 07:08:16;;;;;;;15.32;8.45;;;563.60;1715.20;;;;;;5097017;28;20027;-64
2021/09/15 07:10:42;;;;;;;21.70;9.60;;;563.80;1689.60;;;;;;5096428;28;20058;-63
2021/09/15 07:13:09;;;;;;;13.13;9.52;;;564.00;1689.60;;;;;;5096712;28;20024;-64
2021/09/15 07:15:34;;;;;;;19.70;9.82;;;564.10;1689.60;;;;;;5096674;28;20040;-63
2021/09/15 07:18:00;;;;;;;11.18;7.97;;;588.80;1664.00;;;;;;5096579;28;20020;-63
2021/09/15 07:20:26;;;;;;;17.40;8.23;;;589.00;1638.40;;;;;;5096326;28;20055;-70
2021/09/15 07:22:52;;;;;;;13.85;7.53;;;589.20;1612.80;;;;;;5095395;28;20031;-64
2021/09/15 07:25:17;;;;;;;13.00;8.13;;;589.40;1587.20;;;;;;5095345;28;20024;-64
2021/09/15 07:27:43;;;;;;;14.50;8.73;;;589.60;1612.80;;;;;;5094741;28;20540;-63
2021/09/15 07:30:11;;;;;;;10.90;7.53;;;589.70;1587.20;;;;;;5095146;28;20024;-66
2021/09/15 07:32:36;;;;;;;11.38;7.85;;;614.40;1561.60;;;;;;5093556;28;20423;-63
2021/09/15 07:35:03;;;;;;;14.40;8.02;;;614.60;1561.60;;;;;;5094812;28;20049;-72
2021/09/15 07:37:29;;;;;;;17.95;8.90;;;614.80;1561.60;;;;;;5094922;28;20369;-63
2021/09/15 07:39:55;;;;;;;12.90;8.18;;;615.00;1536.00;;;;;;5095146;28;20056;-63
2021/09/15 07:42:21;;;;;;;11.43;7.70;;;615.10;1510.40;;;;;;5095166;28;20028;-63
2021/09/15 07:44:47;;;;;;;16.88;8.10;;;615.30;1484.80;;;;;;5092170;28;20508;-65
2021/09/15 07:47:16;;;;;;;13.43;7.85;;;640.10;1484.80;;;;;;5095023;28;20043;-63
2021/09/15 07:49:46;;;;;;;15.52;8.40;;;640.30;1459.20;;;;;;5094836;28;20055;-63
2021/09/15 07:52:12;;;;;;;19.17;8.80;;;640.50;1459.20;;;;;;5094834;28;20062;-63
2021/09/15 07:54:38;;;;;;;18.02;8.63;;;640.60;1433.60;;;;;;5096016;28;20101;-63
2021/09/15 07:57:04;;;;;;;10.73;7.10;;;640.70;1433.60;;;;;;5096031;28;20084;-63
2021/09/15 07:59:30;;;;;;;13.80;7.20;;;640.80;1408.00;;;;;;5095799;28;20020;-63
2021/09/15 08:01:56;;;;;;;15.25;7.47;;;665.70;1408.00;;;;;;5094566;28;20085;-63
2021/09/15 08:04:22;;;;;;;19.45;7.72;;;665.80;1408.00;;;;;;5095705;28;20097;-64
2021/09/15 08:06:48;;;;;;;11.85;7.25;;;665.80;1408.00;;;;;;5095103;28;20466;-63
2021/09/15 08:09:13;;;;;;;11.38;6.00;;;666.00;1382.40;;;;;;5095363;28;20040;-63
2021/09/15 08:11:39;;;;;;;11.80;6.90;;;666.20;1356.80;;;;;;5094983;28;20383;-63
2021/09/15 08:14:05;;;;;;;8.80;5.80;;;666.30;1356.80;;;;;;5095495;28;20016;-63
2021/09/15 08:16:30;;;;;;;7.53;5.63;;;666.40;1331.20;;;;;;5095165;28;20039;-63
2021/09/15 08:19:00;;;;;;;10.45;5.32;;;691.20;1254.40;;;;;;5094539;28;20486;-63
2021/09/15 08:21:26;;;;;;;10.15;5.00;;;691.40;1254.40;;;;;;5095322;28;20039;-63
2021/09/15 08:23:52;;;;;;;7.93;5.50;;;691.50;1254.40;;;;;;5094720;28;20457;-63
2021/09/15 08:26:18;;;;;;;8.93;4.25;;;691.60;1254.40;;;;;;5093559;28;20032;-69
2021/09/15 08:28:44;;;;;;;10.23;5.10;;;691.80;1203.20;;;;;;5095247;28;20077;-67
2021/09/15 08:31:10;;;;;;;6.50;4.93;;;692.00;1203.20;;;;;;5093969;28;20132;-64
2021/09/15 08:33:37;;;;;;;5.40;4.65;;;692.10;1203.20;;;;;;5094213;28;20020;-64
2021/09/15 08:36:03;;;;;;;7.15;4.65;;;716.80;1203.20;;;;;;5093764;28;20374;-64
2021/09/15 08:38:29;;;;;;;7.70;4.53;;;716.90;1203.20;;;;;;5093902;28;20059;-67
2021/09/15 08:40:55;;;;;;;7.90;4.90;;;717.10;1203.20;;;;;;5093860;28;20043;-66
2021/09/15 08:43:21;;;;;;;6.65;4.65;;;717.20;1177.60;;;;;;5093680;28;20541;-63
2021/09/15 08:45:47;;;;;;;10.60;5.00;;;717.30;1152.00;;;;;;5093843;28;20099;-64
2021/09/15 08:48:18;;;;;;;9.18;5.15;;;717.50;1100.80;;;;;;5093810;28;20024;-64
2021/09/15 08:50:46;;;;;;;10.13;4.85;;;717.70;1100.80;;;;;;5093458;28;20073;-63
2021/09/15 08:53:12;;;;;;;8.35;4.32;;;742.40;1126.40;;;;;;5093525;28;20059;-62
2021/09/15 08:55:38;;;;;;;6.70;5.30;;;742.40;1126.40;;;;;;5093226;28;20031;-63
2021/09/15 08:58:04;;;;;;;6.13;5.10;;;742.40;1126.40;;;;;;5093441;28;20016;-63
2021/09/15 09:00:29;;;;;;;7.70;4.88;;;742.50;1152.00;;;;;;5094912;28;20028;-64
2021/09/15 09:02:56;;;;;;;12.70;4.82;;;742.50;1152.00;;;;;;5094772;28;20024;-63
2021/09/15 09:05:22;;;;;;;8.02;4.45;;;742.50;1152.00;;;;;;5094766;28;20036;-63
2021/09/15 09:07:48;;;;;;;9.02;4.75;;;742.60;1152.00;;;;;;5094581;28;20100;-63
2021/09/15 09:10:15;;;;;;;8.05;3.97;;;742.60;1126.40;;;;;;5094072;28;20044;-63
2021/09/15 09:12:44;;;;;;;4.43;4.00;;;742.60;1152.00;;;;;;5093217;28;20028;-63
2021/09/15 09:15:22;;;;;;;5.50;4.28;;;742.70;1126.40;;;;;;5094392;28;20419;-63
2021/09/15 09:17:48;;;;;;;5.70;4.88;;;742.80;1126.40;;;;;;5093393;28;20024;-63
2021/09/15 09:20:14;;;;;;;12.82;4.80;;;742.90;1126.40;;;;;;5093115;28;20381;-64
2021/09/15 09:23:16;;;;;;;12.00;4.25;;;742.90;1126.40;;;;;;5092934;28;20016;-74
2021/09/15 09:25:45;;;;;;;13.68;5.10;;;743.00;1126.40;;;;;;5010854;28;20440;-63
2021/09/15 09:28:27;;;;;;;7.32;4.43;;;743.00;1100.80;;;;;;5010883;28;20048;-70
2021/09/15 09:30:59;;;;;;;11.50;4.75;;;743.00;1100.80;;;;;;5010262;28;20517;-72
2021/09/15 09:33:26;;;;;;;10.43;5.10;;;743.10;1100.80;;;;;;5009135;28;20510;-74
2021/09/15 09:36:04;;;;;;;6.07;4.57;;;743.10;1126.40;;;;;;5010875;28;20140;-75
2021/09/15 09:38:30;;;;;;;11.10;4.65;;;743.10;1100.80;;;;;;5010779;28;20017;-72
2021/09/15 09:40:59;;;;;;;4.97;4.47;;;743.20;1126.40;;;;;;5010220;28;20037;-63
2021/09/15 09:43:27;;;;;;;15.77;4.45;;;743.20;1100.80;;;;;;5010530;28;20109;-63
2021/09/15 09:45:52;;;;;;;8.65;4.55;;;743.20;1075.20;;;;;;5010587;28;20041;-63
2021/09/15 09:48:40;;;;;;;7.47;4.57;;;743.20;1075.20;;;;;;5008044;28;20451;-64
2021/09/15 09:51:36;;;;;;;6.88;3.83;;;743.30;1049.60;;;;;;5010736;28;20036;-63
2021/09/15 09:54:14;;;;;;;8.25;4.35;;;768.00;1049.60;;;;;;5008572;28;20034;-63
2021/09/15 09:56:42;;;;;;;6.88;3.83;;;768.00;1024.00;;;;;;5007853;28;20037;-62
2021/09/15 09:59:09;;;;;;;4.75;3.63;;;768.10;1024.00;;;;;;5033766;28;20024;-63
2021/09/15 10:01:42;;;;;;;6.97;4.40;;;768.20;998.40;;;;;;5091092;28;20385;-62
2021/09/15 10:04:08;;;;;;;16.50;9.10;;;768.40;1024.00;;;;;;5092597;28;20016;-64
2021/09/15 10:06:38;;;;;;;11.70;7.93;;;768.40;998.40;;;;;;5092328;28;20032;-64
2021/09/15 10:09:06;;;;;;;9.98;6.32;;;768.40;998.40;;;;;;5092674;28;20443;-62
2021/09/15 10:11:33;;;;;;;11.65;6.07;;;768.40;972.80;;;;;;5092200;28;20437;-62
2021/09/15 10:14:01;;;;;;;7.57;5.32;;;768.40;998.40;;;;;;5089733;28;20055;-62
2021/09/15 10:16:28;;;;;;;11.80;7.13;;;768.50;972.80;;;;;;5092448;28;20028;-62
2021/09/15 10:19:03;;;;;;;11.43;5.65;;;768.60;972.80;;;;;;5092226;28;20041;-63
2021/09/15 10:21:31;;;;;;;6.95;4.15;;;768.80;921.60;;;;;;5091179;28;20359;-63
2021/09/15 10:23:58;;;;;;;7.53;3.50;;;768.90;896.00;;;;;;5096306;28;20019;-62
2021/09/15 10:26:28;;;;;;;8.98;4.10;;;768.90;896.00;;;;;;5096170;28;20055;-64
2021/09/15 10:29:12;;;;;;;6.70;4.65;;;793.60;921.60;;;;;;5096193;28;20020;-64
2021/09/15 10:32:03;;;;;;;10.32;3.72;;;768.90;921.60;;;;;;5093704;28;20433;-63
2021/09/15 10:34:38;;;;;;;5.22;3.75;;;768.90;921.60;;;;;;5079608;28;20032;-63
2021/09/15 10:37:29;;;;;;;7.15;3.65;;;793.60;947.20;;;;;;5094473;28;20028;-63
2021/09/15 10:39:59;;;;;;;7.15;3.88;;;793.60;947.20;;;;;;5100594;28;20351;-64
2021/09/15 10:45:14;;;;;;;4.18;3.50;;;793.70;921.60;;;;;;5094698;28;20146;-63
2021/09/15 10:47:54;;;;;;;15.73;4.55;;;793.70;947.20;;;;;;5093755;28;20089;-63
2021/09/15 10:50:29;;;;;;;8.68;4.10;;;793.80;921.60;;;;;;5093862;28;20031;-63
2021/09/15 10:53:07;;;;;;;9.48;3.67;;;793.80;921.60;;;;;;5096313;28;20406;-63
2021/09/15 10:55:56;;;;;;;6.53;3.60;;;794.00;921.60;;;;;;5097179;28;20062;-63
2021/09/15 10:58:22;;;;;;;5.35;3.10;;;794.00;921.60;;;;;;5096869;28;20420;-70
2021/09/15 11:01:04;;;;;;;6.15;3.72;;;794.00;896.00;;;;;;5097065;28;20012;-68
2021/09/15 11:03:57;;;;;;;9.52;3.75;;;794.10;896.00;;;;;;5096902;28;20473;-63
2021/09/15 11:06:23;;;;;;;14.35;4.18;;;794.10;921.60;;;;;;5096446;28;20028;-63
2021/09/15 11:08:51;;;;;;;7.63;4.03;;;794.10;947.20;;;;;;5095298;28;20041;-64
2021/09/15 11:11:19;;;;;;;4.72;3.58;;;794.10;896.00;;;;;;5096613;28;20123;-64
2021/09/15 11:13:58;;;;;;;4.82;3.13;;;794.20;896.00;;;;;;5096011;28;20032;-65
2021/09/15 11:16:29;;;;;;;6.47;3.85;;;794.30;870.40;;;;;;5091093;28;20036;-61
2021/09/15 11:19:18;;;;;;;16.42;4.75;;;794.40;870.40;;;;;;5094164;28;20027;-63
2021/09/15 11:21:59;;;;;;;12.18;3.80;;;794.30;870.40;;;;;;5092828;28;20016;-67
2021/09/15 11:24:30;;;;;;;10.07;3.80;;;794.10;896.00;;;;;;5092957;28;20028;-64
2021/09/15 11:26:58;;;;;;;6.57;3.70;;;794.00;947.20;;;;;;5095196;28;20043;-68
2021/09/15 11:29:39;;;;;;;7.15;3.85;;;793.80;947.20;;;;;;5092684;28;20031;-68
2021/09/15 11:32:07;;;;;;;6.53;4.05;;;793.80;947.20;;;;;;5099290;28;20020;-68
2021/09/15 11:34:37;;;;;;;3.80;3.50;;;793.60;921.60;;;;;;5093164;28;20042;-70
2021/09/15 11:37:03;;;;;;;8.63;3.30;;;768.80;870.40;;;;;;5091979;28;20483;-67
2021/09/15 11:39:29;;;;;;;19.80;4.63;;;768.70;896.00;;;;;;5094673;28;20148;-66
2021/09/15 11:42:03;;;;;;;10.20;3.65;;;768.70;896.00;;;;;;5094379;28;20477;-66
2021/09/15 11:44:28;;;;;;;8.30;3.75;;;768.70;896.00;;;;;;5092420;28;20508;-66
2021/09/15 11:47:00;;;;;;;5.80;3.60;;;768.70;921.60;;;;;;5094558;28;20063;-65
2021/09/15 11:49:31;;;;;;;9.38;4.15;;;768.70;921.60;;;;;;5092285;28;20047;-65
2021/09/15 11:51:59;;;;;;;4.82;3.53;;;768.60;921.60;;;;;;5094482;28;20500;-66
2021/09/15 11:54:27;;;;;;;3.92;3.25;;;768.70;921.60;;;;;;5091868;28;20020;-66
2021/09/15 11:57:03;;;;;;;7.63;4.35;;;768.70;921.60;;;;;;5094930;28;20089;-65
2021/09/15 11:59:30;;;;;;;8.25;3.72;;;768.80;896.00;;;;;;5094346;28;20044;-65
2021/09/15 12:01:56;;;;;;;6.47;4.18;;;768.80;870.40;;;;;;5094988;28;20031;-68
2021/09/15 12:04:24;;;;;;;8.40;3.67;;;768.80;870.40;;;;;;5094342;28;20552;-69
2021/09/15 12:06:50;;;;;;;14.20;4.72;;;768.70;896.00;;;;;;5094563;28;20161;-65
2021/09/15 12:09:16;;;;;;;12.90;3.90;;;768.70;896.00;;;;;;5094657;28;20095;-65
2021/09/15 12:11:48;;;;;;;7.60;3.67;;;768.70;896.00;;;;;;5093874;28;20425;-65
2021/09/15 12:14:14;;;;;;;6.07;3.45;;;768.60;896.00;;;;;;5092953;28;20028;-64
2021/09/15 12:16:41;;;;;;;5.43;3.58;;;768.60;896.00;;;;;;5093925;28;20035;-68
2021/09/15 12:19:19;;;;;;;6.82;3.95;;;768.60;921.60;;;;;;5092500;28;20035;-64
2021/09/15 12:21:48;;;;;;;4.18;3.20;;;768.60;921.60;;;;;;5092753;28;20052;-66